sensor_id;sensor_type;location;lat;lon;timestamp;P1;durP1;ratioP1;P2;durP2;ratioP2
20842;SDS011;26719;51.440;-2.574;2023-05-29T00:00:13;0.00;;;0.00;;
20842;SDS011;26719;51.440;-2.574;2023-05-29T00:02:42;0.10;;;0.10;;
20842;SDS011;26719;51.440;-2.574;2023-05-29T00:05:12;0.00;;;0.00;;
20842;SDS011;26719;51.440;-2.574;2023-05-29T00:07:38;0.10;;;0.10;;
20842;SDS011;26719;51.440;-2.574;2023-05-29T00:10:06;0.10;;;0.10;;
20842;SDS011;26719;51.440;-2.574;2023-05-29T00:12:33;0.10;;;0.10;;
20842;SDS011;26719;51.440;-2.574;2023-05-29T00:14:59;0.10;;;0.10;;
20842;SDS011;26719;51.440;-2.574;2023-05-29T00:17:25;0.10;;;0.10;;
20842;SDS011;26719;51.440;-2.574;2023-05-29T00:19:51;0.10;;;0.10;;
20842;SDS011;26719;51.440;-2.574;2023-05-29T00:22:17;0.10;;;0.10;;
20842;SDS011;26719;51.440;-2.574;2023-05-29T00:24:44;0.10;;;0.10;;
20842;SDS011;26719;51.440;-2.574;2023-05-29T00:27:13;0.10;;;0.10;;
20842;SDS011;26719;51.440;-2.574;2023-05-29T00:29:39;0.20;;;0.20;;
20842;SDS011;26719;51.440;-2.574;2023-05-29T00:32:06;0.10;;;0.10;;
20842;SDS011;26719;51.440;-2.574;2023-05-29T00:34:32;0.10;;;0.10;;
20842;SDS011;26719;51.440;-2.574;2023-05-29T00:36:58;0.13;;;0.13;;
20842;SDS011;26719;51.440;-2.574;2023-05-29T00:39:24;0.10;;;0.10;;
20842;SDS011;26719;51.440;-2.574;2023-05-29T00:41:50;0.20;;;0.20;;
20842;SDS011;26719;51.440;-2.574;2023-05-29T00:44:20;0.10;;;0.10;;
20842;SDS011;26719;51.440;-2.574;2023-05-29T00:46:46;0.10;;;0.10;;
20842;SDS011;26719;51.440;-2.574;2023-05-29T00:49:13;0.10;;;0.10;;
20842;SDS011;26719;51.440;-2.574;2023-05-29T00:51:39;0.10;;;0.10;;
20842;SDS011;26719;51.440;-2.574;2023-05-29T00:54:06;0.10;;;0.10;;
20842;SDS011;26719;51.440;-2.574;2023-05-29T00:56:36;0.20;;;0.20;;
20842;SDS011;26719;51.440;-2.574;2023-05-29T00:59:02;0.10;;;0.10;;
20842;SDS011;26719;51.440;-2.574;2023-05-29T01:01:28;0.10;;;0.10;;
20842;SDS011;26719;51.440;-2.574;2023-05-29T01:03:57;0.10;;;0.10;;
20842;SDS011;26719;51.440;-2.574;2023-05-29T01:06:23;0.10;;;0.10;;
20842;SDS011;26719;51.440;-2.574;2023-05-29T01:08:50;0.10;;;0.10;;
20842;SDS011;26719;51.440;-2.574;2023-05-29T01:13:42;0.20;;;0.20;;
20842;SDS011;26719;51.440;-2.574;2023-05-29T01:16:21;0.20;;;0.20;;
20842;SDS011;26719;51.440;-2.574;2023-05-29T01:24:25;0.10;;;0.10;;
20842;SDS011;26719;51.440;-2.574;2023-05-29T01:27:09;0.10;;;0.10;;
20842;SDS011;26719;51.440;-2.574;2023-05-29T01:29:36;0.20;;;0.20;;
20842;SDS011;26719;51.440;-2.574;2023-05-29T01:32:03;0.13;;;0.13;;
20842;SDS011;26719;51.440;-2.574;2023-05-29T01:34:30;0.10;;;0.10;;
20842;SDS011;26719;51.440;-2.574;2023-05-29T01:36:56;0.20;;;0.20;;
20842;SDS011;26719;51.440;-2.574;2023-05-29T01:39:23;0.20;;;0.20;;
20842;SDS011;26719;51.440;-2.574;2023-05-29T01:41:50;0.20;;;0.20;;
20842;SDS011;26719;51.440;-2.574;2023-05-29T01:44:19;0.20;;;0.20;;
20842;SDS011;26719;51.440;-2.574;2023-05-29T01:46:46;0.10;;;0.10;;
20842;SDS011;26719;51.440;-2.574;2023-05-29T01:49:13;0.10;;;0.10;;
20842;SDS011;26719;51.440;-2.574;2023-05-29T01:51:40;0.30;;;0.30;;
20842;SDS011;26719;51.440;-2.574;2023-05-29T01:54:06;0.10;;;0.10;;
20842;SDS011;26719;51.440;-2.574;2023-05-29T01:56:32;0.20;;;0.20;;
20842;SDS011;26719;51.440;-2.574;2023-05-29T01:59:00;0.20;;;0.20;;
20842;SDS011;26719;51.440;-2.574;2023-05-29T02:01:27;0.10;;;0.10;;
20842;SDS011;26719;51.440;-2.574;2023-05-29T02:03:53;0.13;;;0.13;;
20842;SDS011;26719;51.440;-2.574;2023-05-29T02:06:19;0.10;;;0.10;;
20842;SDS011;26719;51.440;-2.574;2023-05-29T02:08:45;0.20;;;0.20;;
20842;SDS011;26719;51.440;-2.574;2023-05-29T02:11:12;0.20;;;0.20;;
20842;SDS011;26719;51.440;-2.574;2023-05-29T02:13:38;0.20;;;0.20;;
20842;SDS011;26719;51.440;-2.574;2023-05-29T02:16:04;0.20;;;0.20;;
20842;SDS011;26719;51.440;-2.574;2023-05-29T02:18:30;0.20;;;0.20;;
20842;SDS011;26719;51.440;-2.574;2023-05-29T02:20:56;0.10;;;0.10;;
20842;SDS011;26719;51.440;-2.574;2023-05-29T02:23:23;0.10;;;0.10;;
20842;SDS011;26719;51.440;-2.574;2023-05-29T02:25:49;0.17;;;0.17;;
20842;SDS011;26719;51.440;-2.574;2023-05-29T02:28:16;0.20;;;0.20;;
20842;SDS011;26719;51.440;-2.574;2023-05-29T02:30:42;0.20;;;0.20;;
20842;SDS011;26719;51.440;-2.574;2023-05-29T02:33:08;0.20;;;0.20;;
20842;SDS011;26719;51.440;-2.574;2023-05-29T02:35:34;0.20;;;0.20;;
20842;SDS011;26719;51.440;-2.574;2023-05-29T02:38:00;0.20;;;0.20;;
20842;SDS011;26719;51.440;-2.574;2023-05-29T02:40:26;0.20;;;0.20;;
20842;SDS011;26719;51.440;-2.574;2023-05-29T02:42:52;0.20;;;0.20;;
20842;SDS011;26719;51.440;-2.574;2023-05-29T02:45:18;0.30;;;0.30;;
20842;SDS011;26719;51.440;-2.574;2023-05-29T02:47:44;0.20;;;0.20;;
20842;SDS011;26719;51.440;-2.574;2023-05-29T02:50:10;0.20;;;0.20;;
20842;SDS011;26719;51.440;-2.574;2023-05-29T02:52:39;0.20;;;0.20;;
20842;SDS011;26719;51.440;-2.574;2023-05-29T02:55:05;0.20;;;0.20;;
20842;SDS011;26719;51.440;-2.574;2023-05-29T02:57:32;0.20;;;0.20;;
20842;SDS011;26719;51.440;-2.574;2023-05-29T02:59:58;0.20;;;0.20;;
20842;SDS011;26719;51.440;-2.574;2023-05-29T03:02:25;0.20;;;0.20;;
20842;SDS011;26719;51.440;-2.574;2023-05-29T03:04:52;0.27;;;0.27;;
20842;SDS011;26719;51.440;-2.574;2023-05-29T03:07:18;0.20;;;0.20;;
20842;SDS011;26719;51.440;-2.574;2023-05-29T03:09:44;0.10;;;0.10;;
20842;SDS011;26719;51.440;-2.574;2023-05-29T03:12:10;0.20;;;0.20;;
20842;SDS011;26719;51.440;-2.574;2023-05-29T03:14:37;0.20;;;0.20;;
20842;SDS011;26719;51.440;-2.574;2023-05-29T03:17:06;0.20;;;0.20;;
20842;SDS011;26719;51.440;-2.574;2023-05-29T03:19:34;0.20;;;0.20;;
20842;SDS011;26719;51.440;-2.574;2023-05-29T03:22:00;0.20;;;0.20;;
20842;SDS011;26719;51.440;-2.574;2023-05-29T03:24:26;0.20;;;0.20;;
20842;SDS011;26719;51.440;-2.574;2023-05-29T03:26:52;0.30;;;0.30;;
20842;SDS011;26719;51.440;-2.574;2023-05-29T03:29:18;0.30;;;0.30;;
20842;SDS011;26719;51.440;-2.574;2023-05-29T03:31:44;0.20;;;0.20;;
20842;SDS011;26719;51.440;-2.574;2023-05-29T03:34:10;0.20;;;0.20;;
20842;SDS011;26719;51.440;-2.574;2023-05-29T03:36:36;0.30;;;0.30;;
20842;SDS011;26719;51.440;-2.574;2023-05-29T03:39:03;0.20;;;0.20;;
20842;SDS011;26719;51.440;-2.574;2023-05-29T03:41:29;0.20;;;0.20;;
20842;SDS011;26719;51.440;-2.574;2023-05-29T03:43:55;0.20;;;0.20;;
20842;SDS011;26719;51.440;-2.574;2023-05-29T03:46:21;0.20;;;0.20;;
20842;SDS011;26719;51.440;-2.574;2023-05-29T03:48:47;0.17;;;0.17;;
20842;SDS011;26719;51.440;-2.574;2023-05-29T03:51:13;0.20;;;0.20;;
20842;SDS011;26719;51.440;-2.574;2023-05-29T03:53:39;0.20;;;0.20;;
20842;SDS011;26719;51.440;-2.574;2023-05-29T03:56:05;0.17;;;0.17;;
20842;SDS011;26719;51.440;-2.574;2023-05-29T03:58:31;0.30;;;0.30;;
20842;SDS011;26719;51.440;-2.574;2023-05-29T04:00:57;0.20;;;0.20;;
20842;SDS011;26719;51.440;-2.574;2023-05-29T04:03:23;0.20;;;0.20;;
20842;SDS011;26719;51.440;-2.574;2023-05-29T04:05:49;0.20;;;0.20;;
20842;SDS011;26719;51.440;-2.574;2023-05-29T04:08:15;0.20;;;0.20;;
20842;SDS011;26719;51.440;-2.574;2023-05-29T04:10:41;0.20;;;0.20;;
20842;SDS011;26719;51.440;-2.574;2023-05-29T04:13:08;0.20;;;0.20;;
20842;SDS011;26719;51.440;-2.574;2023-05-29T04:15:34;0.27;;;0.27;;
20842;SDS011;26719;51.440;-2.574;2023-05-29T04:18:00;0.30;;;0.30;;
20842;SDS011;26719;51.440;-2.574;2023-05-29T04:20:27;0.20;;;0.20;;
20842;SDS011;26719;51.440;-2.574;2023-05-29T04:22:53;0.20;;;0.20;;
20842;SDS011;26719;51.440;-2.574;2023-05-29T04:25:19;0.20;;;0.20;;
20842;SDS011;26719;51.440;-2.574;2023-05-29T04:27:45;0.20;;;0.20;;
20842;SDS011;26719;51.440;-2.574;2023-05-29T04:30:13;0.20;;;0.20;;
20842;SDS011;26719;51.440;-2.574;2023-05-29T04:32:40;0.20;;;0.20;;
20842;SDS011;26719;51.440;-2.574;2023-05-29T04:35:06;0.10;;;0.10;;
20842;SDS011;26719;51.440;-2.574;2023-05-29T04:37:32;0.20;;;0.20;;
20842;SDS011;26719;51.440;-2.574;2023-05-29T04:40:06;0.30;;;0.30;;
20842;SDS011;26719;51.440;-2.574;2023-05-29T04:42:36;0.10;;;0.10;;
20842;SDS011;26719;51.440;-2.574;2023-05-29T04:45:02;0.30;;;0.30;;
20842;SDS011;26719;51.440;-2.574;2023-05-29T04:47:31;0.20;;;0.20;;
20842;SDS011;26719;51.440;-2.574;2023-05-29T04:50:01;0.20;;;0.20;;
20842;SDS011;26719;51.440;-2.574;2023-05-29T04:52:27;0.23;;;0.23;;
20842;SDS011;26719;51.440;-2.574;2023-05-29T04:54:54;0.20;;;0.20;;
20842;SDS011;26719;51.440;-2.574;2023-05-29T04:57:21;0.30;;;0.30;;
20842;SDS011;26719;51.440;-2.574;2023-05-29T04:59:47;0.20;;;0.20;;
20842;SDS011;26719;51.440;-2.574;2023-05-29T05:02:16;0.30;;;0.30;;
20842;SDS011;26719;51.440;-2.574;2023-05-29T05:04:42;0.20;;;0.20;;
20842;SDS011;26719;51.440;-2.574;2023-05-29T05:07:10;0.10;;;0.10;;
20842;SDS011;26719;51.440;-2.574;2023-05-29T05:09:37;0.30;;;0.30;;
20842;SDS011;26719;51.440;-2.574;2023-05-29T05:12:03;0.20;;;0.20;;
20842;SDS011;26719;51.440;-2.574;2023-05-29T05:14:30;0.20;;;0.20;;
20842;SDS011;26719;51.440;-2.574;2023-05-29T05:16:56;0.23;;;0.23;;
20842;SDS011;26719;51.440;-2.574;2023-05-29T05:19:22;0.13;;;0.13;;
20842;SDS011;26719;51.440;-2.574;2023-05-29T05:21:48;0.30;;;0.30;;
20842;SDS011;26719;51.440;-2.574;2023-05-29T05:24:14;0.20;;;0.20;;
20842;SDS011;26719;51.440;-2.574;2023-05-29T05:26:40;0.30;;;0.30;;
20842;SDS011;26719;51.440;-2.574;2023-05-29T05:29:06;0.20;;;0.20;;
20842;SDS011;26719;51.440;-2.574;2023-05-29T05:31:32;0.10;;;0.10;;
20842;SDS011;26719;51.440;-2.574;2023-05-29T05:34:02;0.10;;;0.10;;
20842;SDS011;26719;51.440;-2.574;2023-05-29T05:36:28;0.10;;;0.10;;
20842;SDS011;26719;51.440;-2.574;2023-05-29T05:38:54;0.13;;;0.13;;
20842;SDS011;26719;51.440;-2.574;2023-05-29T05:41:20;0.10;;;0.10;;
20842;SDS011;26719;51.440;-2.574;2023-05-29T05:43:46;0.13;;;0.13;;
20842;SDS011;26719;51.440;-2.574;2023-05-29T05:46:12;0.30;;;0.30;;
20842;SDS011;26719;51.440;-2.574;2023-05-29T05:48:39;0.20;;;0.20;;
20842;SDS011;26719;51.440;-2.574;2023-05-29T05:51:06;0.20;;;0.20;;
20842;SDS011;26719;51.440;-2.574;2023-05-29T05:53:32;0.10;;;0.10;;
20842;SDS011;26719;51.440;-2.574;2023-05-29T05:55:58;0.10;;;0.10;;
20842;SDS011;26719;51.440;-2.574;2023-05-29T05:58:24;0.20;;;0.20;;
20842;SDS011;26719;51.440;-2.574;2023-05-29T06:00:50;0.20;;;0.20;;
20842;SDS011;26719;51.440;-2.574;2023-05-29T06:03:17;0.20;;;0.20;;
20842;SDS011;26719;51.440;-2.574;2023-05-29T06:05:43;0.10;;;0.10;;
20842;SDS011;26719;51.440;-2.574;2023-05-29T06:08:09;0.20;;;0.20;;
20842;SDS011;26719;51.440;-2.574;2023-05-29T06:10:35;0.20;;;0.20;;
20842;SDS011;26719;51.440;-2.574;2023-05-29T06:13:01;0.17;;;0.17;;
20842;SDS011;26719;51.440;-2.574;2023-05-29T06:15:27;0.20;;;0.20;;
20842;SDS011;26719;51.440;-2.574;2023-05-29T06:17:53;0.20;;;0.20;;
20842;SDS011;26719;51.440;-2.574;2023-05-29T06:20:20;0.20;;;0.20;;
20842;SDS011;26719;51.440;-2.574;2023-05-29T06:22:48;0.10;;;0.10;;
20842;SDS011;26719;51.440;-2.574;2023-05-29T06:25:18;0.20;;;0.20;;
20842;SDS011;26719;51.440;-2.574;2023-05-29T06:27:45;0.20;;;0.20;;
20842;SDS011;26719;51.440;-2.574;2023-05-29T06:30:11;0.20;;;0.20;;
20842;SDS011;26719;51.440;-2.574;2023-05-29T06:32:37;0.20;;;0.20;;
20842;SDS011;26719;51.440;-2.574;2023-05-29T06:35:03;0.10;;;0.10;;
20842;SDS011;26719;51.440;-2.574;2023-05-29T06:37:31;0.10;;;0.10;;
20842;SDS011;26719;51.440;-2.574;2023-05-29T06:39:57;0.10;;;0.10;;
20842;SDS011;26719;51.440;-2.574;2023-05-29T06:42:23;0.20;;;0.20;;
20842;SDS011;26719;51.440;-2.574;2023-05-29T06:44:50;0.10;;;0.10;;
20842;SDS011;26719;51.440;-2.574;2023-05-29T06:47:16;0.10;;;0.10;;
20842;SDS011;26719;51.440;-2.574;2023-05-29T06:49:41;0.20;;;0.20;;
20842;SDS011;26719;51.440;-2.574;2023-05-29T06:52:08;0.27;;;0.27;;
20842;SDS011;26719;51.440;-2.574;2023-05-29T06:54:33;0.20;;;0.20;;
20842;SDS011;26719;51.440;-2.574;2023-05-29T06:56:59;0.20;;;0.20;;
20842;SDS011;26719;51.440;-2.574;2023-05-29T06:59:25;0.20;;;0.20;;
20842;SDS011;26719;51.440;-2.574;2023-05-29T07:01:51;0.20;;;0.20;;
20842;SDS011;26719;51.440;-2.574;2023-05-29T07:04:17;0.20;;;0.20;;
20842;SDS011;26719;51.440;-2.574;2023-05-29T07:06:43;0.30;;;0.30;;
20842;SDS011;26719;51.440;-2.574;2023-05-29T07:09:10;0.20;;;0.20;;
20842;SDS011;26719;51.440;-2.574;2023-05-29T07:11:37;0.20;;;0.20;;
20842;SDS011;26719;51.440;-2.574;2023-05-29T07:14:04;0.10;;;0.10;;
20842;SDS011;26719;51.440;-2.574;2023-05-29T07:16:30;0.20;;;0.20;;
20842;SDS011;26719;51.440;-2.574;2023-05-29T07:18:56;0.20;;;0.20;;
20842;SDS011;26719;51.440;-2.574;2023-05-29T07:21:22;0.20;;;0.20;;
20842;SDS011;26719;51.440;-2.574;2023-05-29T07:23:48;0.13;;;0.13;;
20842;SDS011;26719;51.440;-2.574;2023-05-29T07:26:14;0.20;;;0.20;;
20842;SDS011;26719;51.440;-2.574;2023-05-29T07:28:40;0.20;;;0.20;;
20842;SDS011;26719;51.440;-2.574;2023-05-29T07:31:06;0.20;;;0.20;;
20842;SDS011;26719;51.440;-2.574;2023-05-29T07:33:32;0.20;;;0.20;;
20842;SDS011;26719;51.440;-2.574;2023-05-29T07:35:58;0.20;;;0.20;;
20842;SDS011;26719;51.440;-2.574;2023-05-29T07:38:25;0.20;;;0.20;;
20842;SDS011;26719;51.440;-2.574;2023-05-29T07:40:51;0.10;;;0.10;;
20842;SDS011;26719;51.440;-2.574;2023-05-29T07:43:17;0.10;;;0.10;;
20842;SDS011;26719;51.440;-2.574;2023-05-29T07:45:43;0.20;;;0.20;;
20842;SDS011;26719;51.440;-2.574;2023-05-29T07:48:09;0.13;;;0.13;;
20842;SDS011;26719;51.440;-2.574;2023-05-29T07:50:35;0.20;;;0.20;;
20842;SDS011;26719;51.440;-2.574;2023-05-29T07:53:02;0.10;;;0.10;;
20842;SDS011;26719;51.440;-2.574;2023-05-29T07:55:28;0.30;;;0.30;;
20842;SDS011;26719;51.440;-2.574;2023-05-29T07:57:54;0.20;;;0.20;;
20842;SDS011;26719;51.440;-2.574;2023-05-29T08:00:20;0.20;;;0.20;;
20842;SDS011;26719;51.440;-2.574;2023-05-29T08:02:46;0.20;;;0.20;;
20842;SDS011;26719;51.440;-2.574;2023-05-29T08:05:12;0.20;;;0.20;;
20842;SDS011;26719;51.440;-2.574;2023-05-29T08:07:38;0.27;;;0.27;;
20842;SDS011;26719;51.440;-2.574;2023-05-29T08:10:05;0.20;;;0.20;;
20842;SDS011;26719;51.440;-2.574;2023-05-29T08:12:31;0.30;;;0.30;;
20842;SDS011;26719;51.440;-2.574;2023-05-29T08:14:59;0.20;;;0.20;;
20842;SDS011;26719;51.440;-2.574;2023-05-29T08:17:25;0.30;;;0.30;;
20842;SDS011;26719;51.440;-2.574;2023-05-29T08:19:51;0.17;;;0.17;;
20842;SDS011;26719;51.440;-2.574;2023-05-29T08:22:17;0.20;;;0.20;;
20842;SDS011;26719;51.440;-2.574;2023-05-29T08:24:43;0.20;;;0.20;;
20842;SDS011;26719;51.440;-2.574;2023-05-29T08:27:09;0.30;;;0.30;;
20842;SDS011;26719;51.440;-2.574;2023-05-29T08:29:35;0.30;;;0.30;;
20842;SDS011;26719;51.440;-2.574;2023-05-29T08:32:03;0.20;;;0.20;;
20842;SDS011;26719;51.440;-2.574;2023-05-29T08:34:31;0.30;;;0.30;;
20842;SDS011;26719;51.440;-2.574;2023-05-29T08:36:57;0.30;;;0.30;;
20842;SDS011;26719;51.440;-2.574;2023-05-29T08:39:23;0.20;;;0.20;;
20842;SDS011;26719;51.440;-2.574;2023-05-29T08:41:51;0.20;;;0.20;;
20842;SDS011;26719;51.440;-2.574;2023-05-29T08:44:22;0.30;;;0.30;;
20842;SDS011;26719;51.440;-2.574;2023-05-29T08:46:54;0.23;;;0.23;;
20842;SDS011;26719;51.440;-2.574;2023-05-29T08:49:21;0.20;;;0.20;;
20842;SDS011;26719;51.440;-2.574;2023-05-29T08:51:48;0.30;;;0.30;;
20842;SDS011;26719;51.440;-2.574;2023-05-29T08:54:15;0.20;;;0.20;;
20842;SDS011;26719;51.440;-2.574;2023-05-29T08:56:42;0.10;;;0.10;;
20842;SDS011;26719;51.440;-2.574;2023-05-29T08:59:08;0.20;;;0.20;;
20842;SDS011;26719;51.440;-2.574;2023-05-29T09:01:35;0.30;;;0.30;;
20842;SDS011;26719;51.440;-2.574;2023-05-29T09:04:04;0.20;;;0.20;;
20842;SDS011;26719;51.440;-2.574;2023-05-29T09:06:30;0.20;;;0.20;;
20842;SDS011;26719;51.440;-2.574;2023-05-29T09:08:56;0.30;;;0.30;;
20842;SDS011;26719;51.440;-2.574;2023-05-29T09:11:22;0.20;;;0.20;;
20842;SDS011;26719;51.440;-2.574;2023-05-29T09:13:48;0.20;;;0.20;;
20842;SDS011;26719;51.440;-2.574;2023-05-29T09:16:17;0.17;;;0.17;;
20842;SDS011;26719;51.440;-2.574;2023-05-29T09:18:43;0.20;;;0.20;;
20842;SDS011;26719;51.440;-2.574;2023-05-29T09:21:24;0.20;;;0.20;;
20842;SDS011;26719;51.440;-2.574;2023-05-29T09:23:54;0.20;;;0.20;;
20842;SDS011;26719;51.440;-2.574;2023-05-29T09:26:21;0.20;;;0.20;;
20842;SDS011;26719;51.440;-2.574;2023-05-29T09:28:48;0.20;;;0.20;;
20842;SDS011;26719;51.440;-2.574;2023-05-29T09:31:14;0.30;;;0.30;;
20842;SDS011;26719;51.440;-2.574;2023-05-29T09:33:47;0.23;;;0.23;;
20842;SDS011;26719;51.440;-2.574;2023-05-29T09:36:20;0.40;;;0.40;;
20842;SDS011;26719;51.440;-2.574;2023-05-29T09:38:50;0.30;;;0.30;;
20842;SDS011;26719;51.440;-2.574;2023-05-29T09:41:25;0.20;;;0.20;;
20842;SDS011;26719;51.440;-2.574;2023-05-29T09:43:51;0.20;;;0.20;;
20842;SDS011;26719;51.440;-2.574;2023-05-29T09:46:21;0.20;;;0.20;;
20842;SDS011;26719;51.440;-2.574;2023-05-29T09:48:47;0.20;;;0.20;;
20842;SDS011;26719;51.440;-2.574;2023-05-29T09:51:20;0.23;;;0.23;;
20842;SDS011;26719;51.440;-2.574;2023-05-29T09:53:47;0.20;;;0.20;;
20842;SDS011;26719;51.440;-2.574;2023-05-29T09:56:13;0.20;;;0.20;;
20842;SDS011;26719;51.440;-2.574;2023-05-29T09:58:42;0.20;;;0.20;;
20842;SDS011;26719;51.440;-2.574;2023-05-29T10:01:14;0.20;;;0.20;;
20842;SDS011;26719;51.440;-2.574;2023-05-29T10:03:41;0.20;;;0.20;;
20842;SDS011;26719;51.440;-2.574;2023-05-29T10:06:07;0.20;;;0.20;;
20842;SDS011;26719;51.440;-2.574;2023-05-29T10:08:37;0.30;;;0.30;;
20842;SDS011;26719;51.440;-2.574;2023-05-29T10:11:03;0.30;;;0.30;;
20842;SDS011;26719;51.440;-2.574;2023-05-29T10:13:34;0.30;;;0.30;;
20842;SDS011;26719;51.440;-2.574;2023-05-29T10:16:03;0.40;;;0.40;;
20842;SDS011;26719;51.440;-2.574;2023-05-29T10:18:35;0.23;;;0.23;;
20842;SDS011;26719;51.440;-2.574;2023-05-29T10:21:02;0.20;;;0.20;;
20842;SDS011;26719;51.440;-2.574;2023-05-29T10:23:29;0.30;;;0.30;;
20842;SDS011;26719;51.440;-2.574;2023-05-29T10:26:02;0.30;;;0.30;;
20842;SDS011;26719;51.440;-2.574;2023-05-29T10:28:29;0.20;;;0.20;;
20842;SDS011;26719;51.440;-2.574;2023-05-29T10:31:00;0.20;;;0.20;;
20842;SDS011;26719;51.440;-2.574;2023-05-29T10:36:34;0.30;;;0.30;;
20842;SDS011;26719;51.440;-2.574;2023-05-29T10:39:01;0.30;;;0.30;;
20842;SDS011;26719;51.440;-2.574;2023-05-29T10:43:54;0.20;;;0.20;;
20842;SDS011;26719;51.440;-2.574;2023-05-29T10:46:20;0.30;;;0.30;;
20842;SDS011;26719;51.440;-2.574;2023-05-29T10:48:49;0.30;;;0.30;;
20842;SDS011;26719;51.440;-2.574;2023-05-29T10:51:25;0.30;;;0.30;;
20842;SDS011;26719;51.440;-2.574;2023-05-29T10:53:51;0.30;;;0.30;;
20842;SDS011;26719;51.440;-2.574;2023-05-29T10:56:21;0.27;;;0.27;;
20842;SDS011;26719;51.440;-2.574;2023-05-29T10:58:52;0.20;;;0.20;;
20842;SDS011;26719;51.440;-2.574;2023-05-29T11:01:22;0.30;;;0.30;;
20842;SDS011;26719;51.440;-2.574;2023-05-29T11:03:49;0.30;;;0.30;;
20842;SDS011;26719;51.440;-2.574;2023-05-29T11:06:18;0.30;;;0.30;;
20842;SDS011;26719;51.440;-2.574;2023-05-29T11:08:52;0.30;;;0.30;;
20842;SDS011;26719;51.440;-2.574;2023-05-29T11:13:57;0.30;;;0.30;;
20842;SDS011;26719;51.440;-2.574;2023-05-29T11:18:55;0.30;;;0.30;;
20842;SDS011;26719;51.440;-2.574;2023-05-29T11:23:54;0.40;;;0.40;;
20842;SDS011;26719;51.440;-2.574;2023-05-29T11:26:22;0.40;;;0.40;;
20842;SDS011;26719;51.440;-2.574;2023-05-29T11:28:49;0.30;;;0.30;;
20842;SDS011;26719;51.440;-2.574;2023-05-29T11:31:15;0.30;;;0.30;;
20842;SDS011;26719;51.440;-2.574;2023-05-29T11:33:44;0.40;;;0.40;;
20842;SDS011;26719;51.440;-2.574;2023-05-29T11:36:12;0.30;;;0.30;;
20842;SDS011;26719;51.440;-2.574;2023-05-29T11:38:39;0.40;;;0.40;;
20842;SDS011;26719;51.440;-2.574;2023-05-29T11:41:05;0.50;;;0.50;;
20842;SDS011;26719;51.440;-2.574;2023-05-29T11:43:32;0.40;;;0.40;;
20842;SDS011;26719;51.440;-2.574;2023-05-29T11:45:58;0.60;;;0.60;;
20842;SDS011;26719;51.440;-2.574;2023-05-29T11:48:24;0.37;;;0.37;;
20842;SDS011;26719;51.440;-2.574;2023-05-29T11:50:50;0.33;;;0.33;;
20842;SDS011;26719;51.440;-2.574;2023-05-29T11:53:16;0.30;;;0.30;;
20842;SDS011;26719;51.440;-2.574;2023-05-29T11:55:43;0.47;;;0.47;;
20842;SDS011;26719;51.440;-2.574;2023-05-29T11:58:09;0.40;;;0.40;;
20842;SDS011;26719;51.440;-2.574;2023-05-29T12:00:36;0.30;;;0.30;;
20842;SDS011;26719;51.440;-2.574;2023-05-29T12:03:05;0.40;;;0.40;;
20842;SDS011;26719;51.440;-2.574;2023-05-29T12:05:45;0.40;;;0.40;;
20842;SDS011;26719;51.440;-2.574;2023-05-29T12:08:11;0.60;;;0.60;;
20842;SDS011;26719;51.440;-2.574;2023-05-29T12:10:42;0.40;;;0.40;;
20842;SDS011;26719;51.440;-2.574;2023-05-29T12:13:12;0.40;;;0.40;;
20842;SDS011;26719;51.440;-2.574;2023-05-29T12:15:39;0.40;;;0.40;;
20842;SDS011;26719;51.440;-2.574;2023-05-29T12:18:05;0.30;;;0.30;;
20842;SDS011;26719;51.440;-2.574;2023-05-29T12:20:31;0.40;;;0.40;;
20842;SDS011;26719;51.440;-2.574;2023-05-29T12:23:01;0.53;;;0.53;;
20842;SDS011;26719;51.440;-2.574;2023-05-29T12:25:27;0.40;;;0.40;;
20842;SDS011;26719;51.440;-2.574;2023-05-29T12:27:55;0.50;;;0.50;;
20842;SDS011;26719;51.440;-2.574;2023-05-29T12:30:21;0.50;;;0.50;;
20842;SDS011;26719;51.440;-2.574;2023-05-29T12:32:51;0.50;;;0.50;;
20842;SDS011;26719;51.440;-2.574;2023-05-29T12:35:18;0.50;;;0.50;;
20842;SDS011;26719;51.440;-2.574;2023-05-29T12:37:48;0.30;;;0.30;;
20842;SDS011;26719;51.440;-2.574;2023-05-29T12:40:22;0.40;;;0.40;;
20842;SDS011;26719;51.440;-2.574;2023-05-29T12:42:48;0.40;;;0.40;;
20842;SDS011;26719;51.440;-2.574;2023-05-29T12:45:15;0.40;;;0.40;;
20842;SDS011;26719;51.440;-2.574;2023-05-29T12:47:50;0.53;;;0.53;;
20842;SDS011;26719;51.440;-2.574;2023-05-29T12:50:25;0.40;;;0.40;;
20842;SDS011;26719;51.440;-2.574;2023-05-29T12:52:56;0.40;;;0.40;;
20842;SDS011;26719;51.440;-2.574;2023-05-29T12:55:22;0.30;;;0.30;;
20842;SDS011;26719;51.440;-2.574;2023-05-29T12:57:51;0.50;;;0.50;;
20842;SDS011;26719;51.440;-2.574;2023-05-29T13:00:18;0.47;;;0.47;;
20842;SDS011;26719;51.440;-2.574;2023-05-29T13:02:44;0.40;;;0.40;;
20842;SDS011;26719;51.440;-2.574;2023-05-29T13:05:11;0.60;;;0.60;;
20842;SDS011;26719;51.440;-2.574;2023-05-29T13:07:37;0.40;;;0.40;;
20842;SDS011;26719;51.440;-2.574;2023-05-29T13:10:03;0.40;;;0.40;;
20842;SDS011;26719;51.440;-2.574;2023-05-29T13:12:29;0.60;;;0.60;;
20842;SDS011;26719;51.440;-2.574;2023-05-29T13:14:55;0.30;;;0.30;;
20842;SDS011;26719;51.440;-2.574;2023-05-29T13:17:21;0.50;;;0.50;;
20842;SDS011;26719;51.440;-2.574;2023-05-29T13:19:48;0.40;;;0.40;;
20842;SDS011;26719;51.440;-2.574;2023-05-29T13:22:14;0.40;;;0.40;;
20842;SDS011;26719;51.440;-2.574;2023-05-29T13:24:40;0.40;;;0.40;;
20842;SDS011;26719;51.440;-2.574;2023-05-29T13:27:06;0.50;;;0.50;;
20842;SDS011;26719;51.440;-2.574;2023-05-29T13:29:32;0.40;;;0.40;;
20842;SDS011;26719;51.440;-2.574;2023-05-29T13:31:58;0.40;;;0.40;;
20842;SDS011;26719;51.440;-2.574;2023-05-29T13:34:24;0.50;;;0.50;;
20842;SDS011;26719;51.440;-2.574;2023-05-29T13:36:54;0.37;;;0.37;;
20842;SDS011;26719;51.440;-2.574;2023-05-29T13:39:20;0.30;;;0.30;;
20842;SDS011;26719;51.440;-2.574;2023-05-29T13:41:46;0.40;;;0.40;;
20842;SDS011;26719;51.440;-2.574;2023-05-29T13:44:12;0.40;;;0.40;;
20842;SDS011;26719;51.440;-2.574;2023-05-29T13:46:38;0.30;;;0.30;;
20842;SDS011;26719;51.440;-2.574;2023-05-29T13:49:04;0.40;;;0.40;;
20842;SDS011;26719;51.440;-2.574;2023-05-29T13:51:32;0.40;;;0.40;;
20842;SDS011;26719;51.440;-2.574;2023-05-29T13:53:59;0.40;;;0.40;;
20842;SDS011;26719;51.440;-2.574;2023-05-29T13:56:25;0.40;;;0.40;;
20842;SDS011;26719;51.440;-2.574;2023-05-29T13:58:52;0.40;;;0.40;;
20842;SDS011;26719;51.440;-2.574;2023-05-29T14:01:18;0.40;;;0.40;;
20842;SDS011;26719;51.440;-2.574;2023-05-29T14:03:45;0.40;;;0.40;;
20842;SDS011;26719;51.440;-2.574;2023-05-29T14:06:11;0.40;;;0.40;;
20842;SDS011;26719;51.440;-2.574;2023-05-29T14:08:37;0.33;;;0.33;;
20842;SDS011;26719;51.440;-2.574;2023-05-29T14:11:03;0.30;;;0.30;;
20842;SDS011;26719;51.440;-2.574;2023-05-29T14:13:29;0.38;;;0.38;;
20842;SDS011;26719;51.440;-2.574;2023-05-29T14:15:55;0.40;;;0.40;;
20842;SDS011;26719;51.440;-2.574;2023-05-29T14:18:22;0.30;;;0.30;;
20842;SDS011;26719;51.440;-2.574;2023-05-29T14:20:48;0.40;;;0.40;;
20842;SDS011;26719;51.440;-2.574;2023-05-29T14:23:16;0.30;;;0.30;;
20842;SDS011;26719;51.440;-2.574;2023-05-29T14:25:42;0.30;;;0.30;;
20842;SDS011;26719;51.440;-2.574;2023-05-29T14:28:09;0.40;;;0.40;;
20842;SDS011;26719;51.440;-2.574;2023-05-29T14:30:35;0.30;;;0.30;;
20842;SDS011;26719;51.440;-2.574;2023-05-29T14:33:01;0.30;;;0.30;;
20842;SDS011;26719;51.440;-2.574;2023-05-29T14:35:27;0.40;;;0.40;;
20842;SDS011;26719;51.440;-2.574;2023-05-29T14:37:56;0.33;;;0.33;;
20842;SDS011;26719;51.440;-2.574;2023-05-29T14:40:22;0.30;;;0.30;;
20842;SDS011;26719;51.440;-2.574;2023-05-29T14:42:48;0.40;;;0.40;;
20842;SDS011;26719;51.440;-2.574;2023-05-29T14:45:14;0.43;;;0.43;;
20842;SDS011;26719;51.440;-2.574;2023-05-29T14:47:41;0.50;;;0.50;;
20842;SDS011;26719;51.440;-2.574;2023-05-29T14:50:07;0.40;;;0.40;;
20842;SDS011;26719;51.440;-2.574;2023-05-29T14:52:33;0.50;;;0.50;;